Time;durP1;ratioP1;P1;durP2;ratioP2;P2;SDS_P1;SDS_P2;PMS_P1;PMS_P2;Temp;Humidity;BMP_temperature;BMP_pressure;BME280_temperature;BME280_humidity;BME280_pressure;Samples;Min_cycle;Max_cycle;Signal;HPM_P1;HPM_P2
2023/07/12 00:00:46;;;;;;;10.10;2.67;;;;;;;23.54;68.48;100369.03;5038391;28;20040;-60
2023/07/12 00:03:12;;;;;;;9.23;2.58;;;;;;;23.45;68.68;100367.84;5038116;28;20047;-61
2023/07/12 00:05:38;;;;;;;10.38;2.97;;;;;;;23.38;68.92;100384.22;5037585;28;20036;-60
2023/07/12 00:08:05;;;;;;;14.90;2.80;;;;;;;23.29;69.26;100384.84;5036159;28;20032;-60
2023/07/12 00:10:34;;;;;;;7.43;1.95;;;;;;;23.22;69.11;100379.13;5039299;28;20150;-60
2023/07/12 00:12:59;;;;;;;7.85;2.20;;;;;;;23.16;68.49;100362.81;5037686;28;20422;-59
2023/07/12 00:15:28;;;;;;;7.38;1.90;;;;;;;23.10;67.82;100364.06;5039343;28;20069;-60
2023/07/12 00:17:54;;;;;;;7.60;1.80;;;;;;;23.06;67.76;100359.97;5040317;28;20033;-60
2023/07/12 00:20:23;;;;;;;8.48;2.00;;;;;;;23.00;67.40;100351.63;5041555;28;20505;-60
2023/07/12 00:22:51;;;;;;;7.47;1.70;;;;;;;22.96;67.09;100363.28;5039606;28;20060;-60
2023/07/12 00:25:18;;;;;;;7.95;2.30;;;;;;;22.90;67.54;100360.13;5036218;28;20059;-61
2023/07/12 00:27:44;;;;;;;7.10;2.10;;;;;;;22.87;68.12;100370.88;5040513;28;20037;-61
2023/07/12 00:30:14;;;;;;;5.70;1.75;;;;;;;22.82;68.49;100372.13;5035386;28;20056;-61
2023/07/12 00:32:40;;;;;;;4.72;1.88;;;;;;;22.77;68.52;100385.56;5037049;28;20044;-61
2023/07/12 00:35:05;;;;;;;7.15;1.80;;;;;;;22.69;68.67;100381.75;5034005;28;20317;-61
2023/07/12 00:37:31;;;;;;;4.45;1.40;;;;;;;22.62;68.77;100385.72;5038345;28;20167;-61
2023/07/12 00:39:56;;;;;;;2.85;1.60;;;;;;;22.58;68.93;100392.13;5032588;28;20033;-60
2023/07/12 00:42:33;;;;;;;6.32;1.63;;;;;;;22.56;68.89;100404.56;5018946;28;20153;-60
2023/07/12 00:44:59;;;;;;;3.45;1.38;;;;;;;22.56;68.91;100408.03;5039486;28;20037;-61
2023/07/12 00:47:24;;;;;;;3.85;1.50;;;;;;;22.58;68.85;100421.09;5039700;28;20790;-61
2023/07/12 00:49:51;;;;;;;4.88;1.90;;;;;;;22.58;68.82;100415.84;5038148;28;20037;-61
2023/07/12 00:52:19;;;;;;;5.40;1.60;;;;;;;22.59;68.73;100417.53;5034575;28;20163;-61
2023/07/12 00:54:55;;;;;;;3.38;1.40;;;;;;;22.61;69.02;100415.66;5029671;28;20049;-60
2023/07/12 00:57:25;;;;;;;2.50;1.33;;;;;;;22.62;69.16;100422.63;5030691;28;20052;-61
2023/07/12 00:59:56;;;;;;;5.90;1.85;;;;;;;22.60;68.99;100420.06;5035698;28;20599;-61
2023/07/12 01:02:23;;;;;;;3.00;1.60;;;;;;;22.57;69.14;100399.19;5044175;28;20033;-61
2023/07/12 01:04:50;;;;;;;3.60;1.63;;;;;;;22.56;69.09;100396.66;5034196;28;20048;-61
2023/07/12 01:07:19;;;;;;;3.60;1.70;;;;;;;22.54;69.40;100394.09;5037156;28;20044;-61
2023/07/12 01:09:45;;;;;;;3.63;1.58;;;;;;;22.51;69.28;100391.66;5037105;28;20041;-61
2023/07/12 01:12:10;;;;;;;5.18;1.83;;;;;;;22.48;69.43;100391.88;5018659;28;20094;-61
2023/07/12 01:14:38;;;;;;;7.20;1.63;;;;;;;22.46;69.67;100385.84;5038421;28;20037;-61
2023/07/12 01:17:05;;;;;;;3.35;1.33;;;;;;;22.45;69.71;100388.56;5038037;28;20031;-61
2023/07/12 01:19:32;;;;;;;4.43;1.55;;;;;;;22.38;69.99;100401.31;5039443;28;20055;-61
2023/07/12 01:21:58;;;;;;;4.95;1.70;;;;;;;22.33;70.25;100403.31;5033479;28;20545;-61
2023/07/12 01:24:25;;;;;;;4.30;1.60;;;;;;;22.26;70.78;100407.31;5035940;28;20071;-61
2023/07/12 01:26:57;;;;;;;4.15;1.70;;;;;;;22.21;71.10;100422.50;5039704;28;20128;-61
2023/07/12 01:29:23;;;;;;;2.78;1.38;;;;;;;22.23;70.90;100418.03;5035368;28;20052;-61
2023/07/12 01:31:49;;;;;;;4.35;1.20;;;;;;;22.26;70.92;100407.31;5036834;28;20037;-61
2023/07/12 01:34:16;;;;;;;4.32;1.75;;;;;;;22.30;70.71;100396.47;5038916;28;20514;-61
2023/07/12 01:36:42;;;;;;;2.47;1.45;;;;;;;22.30;70.68;100387.72;5038818;28;20044;-61
2023/07/12 01:39:07;;;;;;;3.05;1.50;;;;;;;22.25;71.01;100385.38;5028217;28;20127;-61
2023/07/12 01:41:33;;;;;;;2.92;1.38;;;;;;;22.18;71.52;100381.44;5040931;28;20060;-61
2023/07/12 01:43:59;;;;;;;3.85;1.60;;;;;;;22.12;71.87;100373.91;5037195;28;20387;-61
2023/07/12 01:46:25;;;;;;;2.78;1.40;;;;;;;22.03;72.27;100392.06;5038675;28;20099;-61
2023/07/12 01:48:51;;;;;;;2.63;1.50;;;;;;;21.96;72.82;100410.03;5034312;28;20144;-61
2023/07/12 01:51:19;;;;;;;4.70;1.40;;;;;;;21.94;72.93;100392.66;5036721;28;20033;-61
2023/07/12 01:53:45;;;;;;;5.85;1.60;;;;;;;21.93;73.22;100399.69;5036304;28;20032;-61
2023/07/12 01:56:12;;;;;;;4.40;1.83;;;;;;;21.91;74.28;100398.09;5041657;28;20032;-62
2023/07/12 01:58:37;;;;;;;5.75;1.75;;;;;;;21.65;77.23;100383.84;5034549;28;20057;-62
2023/07/12 02:01:03;;;;;;;7.82;2.40;;;;;;;21.45;80.82;100386.78;5031606;28;20144;-62
2023/07/12 02:03:28;;;;;;;2.88;1.83;;;;;;;21.25;82.68;100387.97;5039389;28;20068;-62
2023/07/12 02:05:54;;;;;;;3.90;2.30;;;;;;;21.13;84.48;100410.56;5043890;28;20059;-62
2023/07/12 02:08:20;;;;;;;7.93;2.72;;;;;;;21.07;85.67;100429.31;5033657;28;20570;-62
2023/07/12 02:10:46;;;;;;;3.20;2.20;;;;;;;21.04;85.80;100433.88;5035223;28;20110;-61
2023/07/12 02:13:11;;;;;;;7.63;2.10;;;;;;;20.99;86.33;100426.25;5039727;28;20080;-62
2023/07/12 02:15:37;;;;;;;3.13;2.10;;;;;;;20.97;85.06;100420.25;5034478;28;20061;-62
2023/07/12 02:18:04;;;;;;;5.40;2.63;;;;;;;20.96;84.67;100415.91;5033143;28;20724;-61
2023/07/12 02:20:29;;;;;;;4.38;2.00;;;;;;;20.97;83.53;100416.75;5042625;28;20033;-62
2023/07/12 02:22:55;;;;;;;5.97;2.10;;;;;;;20.96;82.58;100404.53;5038974;28;20141;-62
2023/07/12 02:25:21;;;;;;;3.60;1.98;;;;;;;21.00;82.71;100406.94;5035936;28;20037;-61
2023/07/12 02:27:47;;;;;;;3.03;1.73;;;;;;;21.02;81.50;100401.56;5036249;28;20048;-62
2023/07/12 02:30:16;;;;;;;4.18;2.00;;;;;;;21.04;80.75;100408.47;5038284;28;20049;-62
2023/07/12 02:32:42;;;;;;;3.13;1.85;;;;;;;21.08;79.75;100417.00;5038254;28;20049;-61
2023/07/12 02:35:08;;;;;;;4.20;1.90;;;;;;;21.14;79.55;100428.00;5040507;28;20036;-62
2023/07/12 02:37:33;;;;;;;3.80;1.70;;;;;;;21.17;79.00;100408.59;5037965;28;20021;-62
2023/07/12 02:39:59;;;;;;;3.75;1.60;;;;;;;21.21;77.77;100410.97;5035208;28;20469;-61
2023/07/12 02:42:24;;;;;;;4.72;2.10;;;;;;;21.12;79.17;100423.78;5036416;28;20448;-62
2023/07/12 02:44:51;;;;;;;8.02;2.20;;;;;;;20.92;82.31;100464.31;5037907;28;20119;-63
2023/07/12 02:47:16;;;;;;;7.70;2.45;;;;;;;20.66;87.24;100505.09;5038227;28;20151;-65
2023/07/12 02:49:42;;;;;;;6.15;2.83;;;;;;;20.45;89.49;100489.69;5047485;28;20052;-65
2023/07/12 02:52:08;;;;;;;5.40;2.40;;;;;;;20.28;90.72;100451.16;5036857;28;20464;-66
2023/07/12 02:54:34;;;;;;;6.05;2.60;;;;;;;20.08;92.08;100461.88;5036808;28;20512;-66
2023/07/12 02:57:00;;;;;;;6.50;2.67;;;;;;;19.95;93.41;100468.69;5041177;28;20033;-65
2023/07/12 02:59:26;;;;;;;4.32;2.42;;;;;;;19.83;93.82;100472.78;5039463;28;20131;-65
2023/07/12 03:01:52;;;;;;;6.53;2.80;;;;;;;19.76;94.13;100488.88;5036836;28;20085;-65
2023/07/12 03:04:18;;;;;;;3.63;2.10;;;;;;;19.73;94.97;100474.16;5035694;28;20092;-64
2023/07/12 03:06:45;;;;;;;5.45;2.70;;;;;;;19.70;95.50;100479.56;5038581;28;20128;-64
2023/07/12 03:09:10;;;;;;;7.88;2.80;;;;;;;19.69;96.28;100475.22;5037405;28;20049;-64
2023/07/12 03:11:36;;;;;;;7.63;3.30;;;;;;;19.70;96.85;100473.47;5030168;28;20067;-64
2023/07/12 03:14:02;;;;;;;5.78;2.47;;;;;;;19.69;96.29;100477.00;5030675;28;20672;-64
2023/07/12 03:16:27;;;;;;;6.93;2.80;;;;;;;19.71;96.43;100491.72;5041177;28;20055;-64
2023/07/12 03:18:53;;;;;;;5.07;2.67;;;;;;;19.73;95.38;100487.28;5036601;28;20041;-64
2023/07/12 03:21:19;;;;;;;4.35;2.35;;;;;;;19.73;95.27;100492.50;5039421;28;20029;-64
2023/07/12 03:23:45;;;;;;;6.22;2.25;;;;;;;19.72;94.17;100496.06;5039307;28;20051;-64
2023/07/12 03:26:11;;;;;;;4.53;2.30;;;;;;;19.74;92.41;100504.69;5036911;28;20059;-63
2023/07/12 03:28:36;;;;;;;7.05;2.45;;;;;;;19.76;90.67;100510.72;5038687;28;20746;-63
2023/07/12 03:31:08;;;;;;;5.55;2.15;;;;;;;19.81;91.02;100515.75;5042153;28;20683;-63
2023/07/12 03:33:33;;;;;;;4.18;2.22;;;;;;;19.87;88.65;100520.69;5039640;28;20041;-64
2023/07/12 03:35:59;;;;;;;6.10;2.50;;;;;;;19.92;87.30;100539.66;5042992;28;20037;-63
2023/07/12 03:38:26;;;;;;;5.25;2.25;;;;;;;19.92;87.76;100542.28;5038121;28;20041;-62
2023/07/12 03:40:57;;;;;;;5.60;1.98;;;;;;;19.87;85.34;100549.53;5037573;28;20068;-63
2023/07/12 03:43:23;;;;;;;6.53;1.92;;;;;;;19.83;83.08;100561.97;5040274;28;20040;-63
2023/07/12 03:45:49;;;;;;;3.72;1.95;;;;;;;19.77;78.70;100566.66;5037813;28;20095;-62
2023/07/12 03:48:14;;;;;;;6.85;1.75;;;;;;;19.66;78.07;100569.78;5037232;28;20043;-62
2023/07/12 03:50:46;;;;;;;4.53;1.23;;;;;;;19.58;76.57;100569.31;5039586;28;20041;-61
2023/07/12 03:53:12;;;;;;;2.30;1.20;;;;;;;19.53;76.69;100569.50;5037288;28;20056;-61
2023/07/12 03:55:42;;;;;;;2.08;1.13;;;;;;;19.47;76.64;100567.19;5039268;28;20493;-61
2023/07/12 03:58:09;;;;;;;2.53;1.13;;;;;;;19.46;76.12;100555.03;5039141;28;20209;-62
2023/07/12 04:00:35;;;;;;;3.95;1.30;;;;;;;19.44;76.50;100548.16;5038533;28;20044;-62
2023/07/12 04:03:01;;;;;;;4.40;1.38;;;;;;;19.45;76.26;100578.69;5045655;28;20040;-61
2023/07/12 04:05:27;;;;;;;3.53;1.42;;;;;;;19.46;76.32;100577.75;5039177;28;20036;-61
2023/07/12 04:07:56;;;;;;;3.40;1.33;;;;;;;19.44;75.30;100575.19;5040461;28;20029;-62
2023/07/12 04:10:21;;;;;;;2.72;1.27;;;;;;;19.45;74.60;100579.53;5034179;28;20662;-61
2023/07/12 04:12:47;;;;;;;2.67;1.25;;;;;;;19.44;75.46;100563.88;5041049;28;20079;-62
2023/07/12 04:15:12;;;;;;;3.80;1.10;;;;;;;19.42;74.95;100553.47;5041672;28;20461;-62
2023/07/12 04:17:37;;;;;;;2.33;1.10;;;;;;;19.42;75.33;100563.09;5032801;28;20041;-62
2023/07/12 04:20:05;;;;;;;3.28;1.30;;;;;;;19.32;76.49;100567.09;5036912;28;20127;-61
2023/07/12 04:22:30;;;;;;;1.85;1.00;;;;;;;19.19;78.99;100566.81;5037606;28;20203;-61
2023/07/12 04:24:56;;;;;;;3.13;1.35;;;;;;;19.07;81.05;100555.13;5035038;28;20541;-61
2023/07/12 04:27:21;;;;;;;1.67;1.08;;;;;;;19.00;80.12;100547.63;5030965;28;20067;-61
2023/07/12 04:29:47;;;;;;;4.35;1.42;;;;;;;19.01;80.24;100546.72;5036937;28;20072;-61
2023/07/12 04:32:12;;;;;;;2.88;1.42;;;;;;;19.02;79.55;100536.16;5040776;28;20039;-61
2023/07/12 04:34:38;;;;;;;2.55;1.10;;;;;;;19.04;79.82;100544.78;5035431;28;20067;-61
2023/07/12 04:37:04;;;;;;;1.98;1.00;;;;;;;19.04;81.10;100536.94;5035547;28;20037;-61
2023/07/12 04:39:30;;;;;;;3.40;1.30;;;;;;;19.10;82.40;100541.03;5031409;28;20088;-61
2023/07/12 04:41:55;;;;;;;5.03;1.48;;;;;;;19.12;82.10;100549.66;5038016;28;20135;-61
2023/07/12 04:44:21;;;;;;;2.33;1.20;;;;;;;19.25;81.62;100565.66;5039075;28;20029;-61
2023/07/12 04:46:46;;;;;;;3.17;1.23;;;;;;;19.35;79.36;100556.47;5041667;28;20104;-61
2023/07/12 04:49:12;;;;;;;3.65;1.02;;;;;;;19.55;77.56;100551.09;5036815;28;20107;-61
2023/07/12 04:51:37;;;;;;;3.03;1.38;;;;;;;19.72;76.77;100551.13;5036593;28;20541;-61
2023/07/12 04:54:02;;;;;;;3.08;1.00;;;;;;;19.90;75.13;100544.16;5033832;28;20100;-61
2023/07/12 04:56:28;;;;;;;3.15;1.30;;;;;;;20.12;74.63;100547.41;5034244;28;20415;-61
2023/07/12 04:58:53;;;;;;;3.03;1.40;;;;;;;20.18;73.32;100541.84;5033747;28;20709;-61
2023/07/12 05:01:19;;;;;;;4.32;1.23;;;;;;;20.18;72.65;100553.16;5035007;28;20064;-62
2023/07/12 05:03:45;;;;;;;2.42;0.98;;;;;;;20.17;72.75;100561.13;5033261;28;20890;-61
2023/07/12 05:06:10;;;;;;;3.05;1.20;;;;;;;20.22;72.92;100559.09;5034136;28;20139;-62
2023/07/12 05:08:36;;;;;;;4.80;1.55;;;;;;;20.18;73.02;100570.72;5034121;28;20510;-62
2023/07/12 05:11:03;;;;;;;2.03;1.02;;;;;;;20.08;74.45;100579.97;5033402;28;20029;-62
2023/07/12 05:13:28;;;;;;;2.92;1.20;;;;;;;19.96;75.62;100581.44;5033760;28;20033;-62
2023/07/12 05:15:54;;;;;;;2.55;1.08;;;;;;;19.85;75.60;100585.50;5033482;28;20091;-61
2023/07/12 05:18:20;;;;;;;2.00;1.40;;;;;;;19.79;75.72;100580.56;5035925;28;20045;-61
2023/07/12 05:20:46;;;;;;;2.22;0.98;;;;;;;19.82;76.26;100593.53;5035207;28;20040;-62
2023/07/12 05:23:12;;;;;;;2.45;1.17;;;;;;;19.80;77.29;100593.59;5035018;28;20763;-62
2023/07/12 05:25:37;;;;;;;3.60;1.20;;;;;;;19.77;78.38;100592.88;5033558;28;20021;-61
2023/07/12 05:28:03;;;;;;;5.43;1.30;;;;;;;19.68;78.27;100607.25;5032653;28;20068;-62
2023/07/12 05:30:30;;;;;;;2.63;1.20;;;;;;;19.61;77.84;100611.13;5034106;28;20037;-61
2023/07/12 05:32:56;;;;;;;4.15;1.48;;;;;;;19.60;80.20;100622.53;5036185;28;20033;-62
2023/07/12 05:35:22;;;;;;;1.42;1.00;;;;;;;19.58;81.59;100627.84;5035837;28;20790;-62
2023/07/12 05:37:49;;;;;;;3.13;1.20;;;;;;;19.51;80.17;100628.19;5036221;28;20086;-63
2023/07/12 05:40:15;;;;;;;1.98;1.23;;;;;;;19.47;81.68;100635.34;5030409;28;20445;-63
2023/07/12 05:42:41;;;;;;;2.83;1.13;;;;;;;19.46;83.29;100640.69;5036505;28;20106;-63
2023/07/12 05:45:09;;;;;;;1.50;1.10;;;;;;;19.46;84.39;100640.69;5028417;28;20037;-63
2023/07/12 05:47:35;;;;;;;2.13;1.05;;;;;;;19.52;84.75;100658.75;5027594;28;20041;-62
2023/07/12 05:50:00;;;;;;;2.10;1.13;;;;;;;19.57;83.70;100648.88;5035347;28;20105;-62
2023/07/12 05:52:27;;;;;;;1.60;1.10;;;;;;;19.61;83.08;100651.31;5030446;28;20033;-62
2023/07/12 05:54:53;;;;;;;1.67;1.10;;;;;;;19.76;83.78;100656.75;5034994;28;20040;-64
2023/07/12 05:57:19;;;;;;;1.70;0.90;;;;;;;19.91;83.00;100656.91;5036554;28;20041;-64
2023/07/12 05:59:45;;;;;;;1.48;0.90;;;;;;;20.04;82.23;100662.38;5033467;28;20037;-63
2023/07/12 06:02:14;;;;;;;2.08;1.17;;;;;;;20.18;80.48;100663.38;5033761;28;20033;-64
2023/07/12 06:04:39;;;;;;;2.22;1.15;;;;;;;20.24;80.71;100661.41;5031973;28;20018;-64
2023/07/12 06:07:05;;;;;;;1.80;1.13;;;;;;;20.28;80.11;100662.94;5040433;28;20402;-63
2023/07/12 06:09:30;;;;;;;4.90;1.02;;;;;;;20.23;79.15;100667.56;5032304;28;20073;-63
2023/07/12 06:11:56;;;;;;;2.33;1.17;;;;;;;20.37;78.53;100667.72;5034450;28;20132;-63
2023/07/12 06:14:22;;;;;;;6.20;1.13;;;;;;;20.57;77.58;100664.97;5033596;28;20143;-63
2023/07/12 06:16:47;;;;;;;2.42;1.05;;;;;;;20.76;78.04;100665.75;5033816;28;20028;-63
2023/07/12 06:19:12;;;;;;;3.28;1.10;;;;;;;20.89;75.72;100658.94;5034864;28;20132;-64
2023/07/12 06:21:37;;;;;;;2.17;1.02;;;;;;;21.00;75.12;100666.25;5036434;28;20033;-64
2023/07/12 06:24:04;;;;;;;1.02;0.75;;;;;;;21.01;76.33;100674.06;5034566;28;20064;-64
2023/07/12 06:26:29;;;;;;;2.60;1.10;;;;;;;21.01;75.01;100665.31;5039995;28;20211;-64
2023/07/12 06:28:54;;;;;;;2.38;0.90;;;;;;;20.91;72.86;100662.31;5037132;28;20123;-65
2023/07/12 06:31:20;;;;;;;1.50;0.90;;;;;;;20.83;72.64;100661.03;5043827;28;20041;-64
2023/07/12 06:33:45;;;;;;;2.70;1.13;;;;;;;20.94;73.97;100672.66;5040356;28;20152;-65
2023/07/12 06:36:11;;;;;;;3.13;1.00;;;;;;;21.06;71.97;100648.38;5049142;28;20836;-64
2023/07/12 06:38:36;;;;;;;1.95;1.30;;;;;;;21.08;72.43;100664.03;5043204;28;20037;-63
2023/07/12 06:41:01;;;;;;;2.83;1.25;;;;;;;20.96;70.48;100649.78;5044337;28;20056;-63
2023/07/12 06:43:27;;;;;;;1.73;0.90;;;;;;;20.77;71.59;100651.69;5045926;28;20124;-64
2023/07/12 06:45:52;;;;;;;2.13;1.10;;;;;;;20.69;71.57;100651.22;5038447;28;20068;-64
2023/07/12 06:48:17;;;;;;;1.75;0.90;;;;;;;20.64;72.56;100664.56;5041214;28;20029;-64
2023/07/12 06:50:43;;;;;;;1.80;0.93;;;;;;;20.45;72.10;100670.84;5032488;28;20041;-61
2023/07/12 06:53:08;;;;;;;2.65;0.88;;;;;;;20.34;72.41;100670.50;5031351;28;20036;-61
2023/07/12 06:55:34;;;;;;;1.83;1.00;;;;;;;20.34;73.81;100675.75;5027092;28;20025;-61
2023/07/12 06:58:00;;;;;;;1.50;1.10;;;;;;;20.36;73.30;100671.31;5032163;28;20131;-61
2023/07/12 07:00:25;;;;;;;1.85;0.80;;;;;;;20.49;72.72;100669.75;5031314;28;20041;-60
2023/07/12 07:02:51;;;;;;;1.63;0.90;;;;;;;20.62;73.71;100671.69;5030253;28;20291;-61
2023/07/12 07:05:16;;;;;;;2.25;0.85;;;;;;;20.85;72.91;100670.53;5033416;28;20029;-61
2023/07/12 07:07:41;;;;;;;1.38;0.80;;;;;;;21.16;72.40;100668.00;5036541;28;20472;-61
2023/07/12 07:10:07;;;;;;;3.60;1.75;;;;;;;21.43;70.08;100659.53;5035253;28;20040;-61
2023/07/12 07:12:32;;;;;;;2.42;1.10;;;;;;;21.52;68.46;100645.88;5032276;28;20037;-64
2023/07/12 07:14:58;;;;;;;3.28;1.73;;;;;;;21.45;68.96;100662.94;5030809;28;20924;-63
2023/07/12 07:17:23;;;;;;;1.50;0.90;;;;;;;21.50;69.02;100663.50;5040710;28;20035;-63
2023/07/12 07:19:49;;;;;;;3.70;1.10;;;;;;;21.52;69.65;100669.56;5040218;28;20041;-64
2023/07/12 07:22:14;;;;;;;2.47;1.17;;;;;;;21.50;68.75;100669.63;5036494;28;20635;-64
2023/07/12 07:24:39;;;;;;;1.48;0.70;;;;;;;21.44;68.60;100672.59;5033567;28;20171;-64
2023/07/12 07:27:05;;;;;;;3.55;1.10;;;;;;;21.45;67.87;100671.66;5036862;28;20110;-64
2023/07/12 07:29:30;;;;;;;1.70;0.80;;;;;;;21.45;67.57;100673.44;5032374;28;20045;-64
2023/07/12 07:31:56;;;;;;;2.30;0.90;;;;;;;21.45;67.78;100684.81;5035162;28;20035;-64
2023/07/12 07:34:21;;;;;;;2.17;0.90;;;;;;;21.53;68.57;100689.66;5033848;28;20156;-63
2023/07/12 07:36:46;;;;;;;1.83;1.00;;;;;;;21.49;68.03;100686.31;5034117;28;20103;-64
2023/07/12 07:39:12;;;;;;;3.92;0.80;;;;;;;21.54;69.16;100699.25;5032905;28;20713;-64
2023/07/12 07:41:37;;;;;;;2.30;1.33;;;;;;;21.51;69.94;100705.53;5041491;28;20639;-64
2023/07/12 07:44:03;;;;;;;1.38;0.90;;;;;;;21.47;69.94;100703.97;5037640;28;20491;-63
2023/07/12 07:46:28;;;;;;;4.28;1.35;;;;;;;21.37;69.75;100702.81;5032565;28;20442;-64
2023/07/12 07:48:53;;;;;;;2.67;0.70;;;;;;;21.32;69.95;100698.69;5034844;28;20132;-64
2023/07/12 07:51:19;;;;;;;1.65;1.02;;;;;;;21.23;70.22;100715.81;5033447;28;20465;-64
2023/07/12 07:53:44;;;;;;;2.67;1.02;;;;;;;21.24;70.24;100707.00;5035996;28;20036;-63
2023/07/12 07:56:11;;;;;;;1.92;0.88;;;;;;;21.31;70.44;100704.91;5033025;28;20455;-63
2023/07/12 07:58:36;;;;;;;1.75;1.00;;;;;;;21.35;71.00;100709.03;5033721;28;20033;-64
2023/07/12 08:01:02;;;;;;;1.48;0.90;;;;;;;21.32;70.06;100699.53;5042242;28;20115;-64
2023/07/12 08:03:29;;;;;;;1.88;1.02;;;;;;;21.31;70.51;100707.53;5040328;28;20033;-64
2023/07/12 08:06:03;;;;;;;3.50;1.20;;;;;;;21.35;70.03;100701.16;5041148;28;20409;-64
2023/07/12 08:08:29;;;;;;;2.90;0.93;;;;;;;21.43;68.81;100685.84;5038549;28;20041;-63
2023/07/12 08:10:55;;;;;;;1.33;0.98;;;;;;;21.53;68.40;100684.38;5042655;28;20048;-64
2023/07/12 08:13:20;;;;;;;2.00;1.30;;;;;;;21.59;67.28;100673.56;5037597;28;20041;-64
2023/07/12 08:15:45;;;;;;;1.65;1.05;;;;;;;21.61;67.48;100666.47;5041997;28;20767;-63
2023/07/12 08:18:12;;;;;;;2.03;1.20;;;;;;;21.74;66.74;100662.19;5036953;28;20037;-63
2023/07/12 08:20:39;;;;;;;3.45;1.58;;;;;;;21.87;65.70;100654.47;5032809;28;20034;-64
2023/07/12 08:23:06;;;;;;;2.55;1.10;;;;;;;22.10;64.86;100648.72;5042370;28;20045;-63
2023/07/12 08:25:32;;;;;;;2.40;1.40;;;;;;;22.37;64.33;100649.75;5033790;28;20083;-63
2023/07/12 08:27:57;;;;;;;4.63;1.90;;;;;;;22.60;63.77;100646.66;5033436;28;20041;-63
2023/07/12 08:30:22;;;;;;;3.20;1.20;;;;;;;22.80;62.63;100632.25;5040486;28;21522;-64
2023/07/12 08:32:48;;;;;;;3.33;1.10;;;;;;;23.02;60.52;100608.91;5038845;28;20045;-63
2023/07/12 08:35:13;;;;;;;1.33;0.88;;;;;;;22.84;59.05;100602.16;5033313;28;20072;-63
2023/07/12 08:37:38;;;;;;;2.22;1.20;;;;;;;22.64;59.87;100628.88;5036274;28;20056;-62
2023/07/12 08:40:05;;;;;;;2.20;0.85;;;;;;;22.61;61.00;100653.63;5032057;28;20075;-63
2023/07/12 08:42:39;;;;;;;2.45;1.00;;;;;;;22.67;60.55;100650.63;5041741;28;20276;-63
2023/07/12 08:45:20;;;;;;;1.80;0.93;;;;;;;22.72;60.12;100637.16;5043340;28;20102;-63
2023/07/12 08:47:48;;;;;;;1.15;0.85;;;;;;;22.79;59.80;100641.13;5038170;28;20041;-64
2023/07/12 08:50:15;;;;;;;2.85;1.10;;;;;;;22.96;59.23;100625.13;5042499;28;20037;-63
2023/07/12 08:52:44;;;;;;;2.35;0.90;;;;;;;23.20;58.64;100610.44;5033447;28;20037;-63
2023/07/12 08:55:20;;;;;;;1.38;0.88;;;;;;;23.38;57.28;100597.88;5041522;28;20506;-64
2023/07/12 08:58:03;;;;;;;1.10;0.70;;;;;;;23.17;57.69;100613.25;5038421;28;20102;-63
2023/07/12 09:00:32;;;;;;;2.38;0.93;;;;;;;23.38;56.89;100596.09;5039618;28;20067;-63
2023/07/12 09:02:58;;;;;;;3.35;0.90;;;;;;;23.18;56.61;100593.88;5029768;28;20040;-63
2023/07/12 09:05:24;;;;;;;4.53;0.63;;;;;;;22.98;56.67;100596.88;5035640;28;20398;-62
2023/07/12 09:08:04;;;;;;;1.83;0.70;;;;;;;22.89;55.84;100587.75;5037269;28;20039;-62
2023/07/12 09:10:41;;;;;;;1.27;0.90;;;;;;;22.98;56.19;100590.78;5035148;28;20154;-63
2023/07/12 09:13:10;;;;;;;2.13;0.80;;;;;;;23.05;55.00;100574.47;5034844;28;20045;-62
2023/07/12 09:15:54;;;;;;;1.55;0.85;;;;;;;23.29;55.70;100580.00;5034551;28;20041;-63
2023/07/12 09:18:28;;;;;;;3.00;0.90;;;;;;;23.67;54.89;100565.19;5030812;28;20550;-63
2023/07/12 09:20:56;;;;;;;3.17;0.85;;;;;;;23.80;53.50;100555.53;5033050;28;20041;-63
2023/07/12 09:23:21;;;;;;;2.05;0.88;;;;;;;23.99;52.02;100537.53;5032829;28;20143;-63
2023/07/12 09:25:53;;;;;;;3.13;0.90;;;;;;;23.98;51.23;100521.78;5034646;28;20031;-63
2023/07/12 09:28:19;;;;;;;2.10;0.95;;;;;;;23.89;50.71;100530.31;5031746;28;20119;-63
2023/07/12 09:30:44;;;;;;;2.25;0.95;;;;;;;23.73;51.06;100535.75;5036645;28;20405;-63
2023/07/12 09:33:17;;;;;;;2.85;0.90;;;;;;;23.64;51.35;100540.78;5037440;28;20107;-64
2023/07/12 09:35:45;;;;;;;2.03;0.68;;;;;;;23.64;51.03;100541.63;5033576;28;20076;-64
2023/07/12 09:38:16;;;;;;;5.40;0.88;;;;;;;23.68;51.48;100545.78;5035642;28;20113;-63
2023/07/12 09:40:48;;;;;;;3.00;0.70;;;;;;;23.63;50.64;100545.22;5033498;28;20135;-64
2023/07/12 09:43:27;;;;;;;3.47;0.80;;;;;;;23.77;50.93;100547.81;5032777;28;20040;-64
2023/07/12 09:46:04;;;;;;;1.02;0.52;;;;;;;23.83;50.48;100546.53;5042299;28;20082;-63
2023/07/12 09:48:42;;;;;;;2.28;0.90;;;;;;;24.03;50.34;100542.59;5037375;28;20090;-63
2023/07/12 09:51:28;;;;;;;4.47;1.20;;;;;;;23.97;50.76;100547.34;5036607;28;20041;-63
2023/07/12 09:54:02;;;;;;;2.15;0.70;;;;;;;23.99;50.16;100548.06;5036015;28;20090;-63
2023/07/12 09:56:47;;;;;;;3.10;0.70;;;;;;;23.95;49.83;100543.13;5034477;28;20047;-64
2023/07/12 09:59:34;;;;;;;2.50;0.82;;;;;;;24.19;49.91;100540.63;5032975;28;20029;-64
2023/07/12 10:02:16;;;;;;;2.08;0.80;;;;;;;24.37;49.76;100548.09;5034155;28;20735;-62
2023/07/12 10:04:44;;;;;;;4.03;0.95;;;;;;;24.31;50.24;100561.75;5035187;28;20041;-61
2023/07/12 10:07:56;;;;;;;2.53;1.00;;;;;;;24.34;49.27;100550.97;5031445;28;20047;-61
2023/07/12 10:10:31;;;;;;;3.40;1.23;;;;;;;24.06;49.17;100552.94;5025924;28;20048;-63
2023/07/12 10:13:12;;;;;;;4.68;0.90;;;;;;;24.18;49.59;100562.69;5037327;28;20090;-63
2023/07/12 10:15:39;;;;;;;3.15;0.85;;;;;;;24.26;48.43;100537.44;5037071;28;20036;-64
2023/07/12 10:18:06;;;;;;;1.85;0.80;;;;;;;24.73;47.11;100536.81;5044167;28;20159;-65
2023/07/12 10:20:31;;;;;;;1.27;0.80;;;;;;;24.52;47.00;100523.28;5036830;28;20037;-64
2023/07/12 10:22:57;;;;;;;2.60;0.75;;;;;;;24.49;46.34;100506.81;5042124;28;20021;-64
2023/07/12 10:25:28;;;;;;;4.85;0.95;;;;;;;24.43;46.61;100515.16;5041000;28;20630;-64
2023/07/12 10:28:09;;;;;;;1.65;0.70;;;;;;;24.93;46.27;100516.91;5037925;28;20060;-64
2023/07/12 10:30:37;;;;;;;4.13;1.02;;;;;;;25.56;45.47;100506.13;5037808;28;20659;-64
2023/07/12 10:33:19;;;;;;;2.88;1.10;;;;;;;25.56;46.25;100520.16;5034052;28;20089;-64
2023/07/12 10:35:49;;;;;;;1.52;0.90;;;;;;;25.33;45.08;100506.91;5036771;28;20048;-67
2023/07/12 10:38:17;;;;;;;1.10;0.70;;;;;;;25.21;44.49;100499.88;5046067;28;20041;-65
2023/07/12 10:40:54;;;;;;;3.30;0.80;;;;;;;25.10;44.93;100505.94;5036882;28;20044;-64
2023/07/12 10:43:28;;;;;;;1.75;0.70;;;;;;;24.81;45.67;100523.91;5037010;28;20059;-64
2023/07/12 10:46:01;;;;;;;0.77;0.50;;;;;;;25.02;44.55;100513.59;5032677;28;20033;-64
2023/07/12 10:48:28;;;;;;;1.95;0.77;;;;;;;25.20;44.72;100514.94;5024042;28;20037;-64
2023/07/12 10:51:11;;;;;;;2.17;0.68;;;;;;;25.73;43.52;100497.75;5037877;28;20040;-64
2023/07/12 10:53:49;;;;;;;1.42;0.60;;;;;;;25.75;43.13;100489.69;5040916;28;20559;-64
2023/07/12 10:56:39;;;;;;;2.92;0.80;;;;;;;25.51;44.90;100513.53;5046003;28;20652;-64
2023/07/12 10:59:28;;;;;;;3.38;0.90;;;;;;;25.28;45.21;100533.72;5038496;28;20036;-63
2023/07/12 11:01:54;;;;;;;1.65;0.60;;;;;;;24.98;44.34;100522.72;5039797;28;20037;-64
2023/07/12 11:04:29;;;;;;;1.63;0.70;;;;;;;25.18;45.64;100545.91;5045642;28;20033;-65
2023/07/12 11:06:56;;;;;;;;;;;;;;;24.93;44.35;100524.84;5041218;28;20028;-66
2023/07/12 11:09:22;;;;;;;2.85;0.93;;;;;;;25.05;44.88;100527.47;5048789;28;19943;-64
2023/07/12 11:12:06;;;;;;;4.93;0.70;;;;;;;25.45;43.76;100508.69;5047198;28;20116;-64
2023/07/12 11:14:38;;;;;;;5.22;1.25;;;;;;;25.84;43.03;100502.22;5054136;28;20457;-64
2023/07/12 11:17:06;;;;;;;1.98;0.70;;;;;;;26.18;42.29;100482.84;5045983;28;20061;-65
2023/07/12 11:19:40;;;;;;;3.03;0.50;;;;;;;26.06;40.04;100454.59;5038510;28;20045;-65
2023/07/12 11:22:21;;;;;;;3.28;0.63;;;;;;;26.33;37.97;100433.94;5043797;28;20040;-65
2023/07/12 11:25:21;;;;;;;3.03;0.80;;;;;;;25.95;38.50;100447.47;5035382;28;20037;-66
2023/07/12 11:27:46;;;;;;;3.15;1.10;;;;;;;25.79;39.63;100452.28;5033874;28;20087;-65